sensor_id;sensor_type;location;lat;lon;timestamp;P1;durP1;ratioP1;P2;durP2;ratioP2
2658;SDS011;1339;53.304;10.406;2023-02-08T00:02:21;20.63;;;14.68;;
2658;SDS011;1339;53.304;10.406;2023-02-08T00:04:48;23.42;;;16.80;;
2658;SDS011;1339;53.304;10.406;2023-02-08T00:07:15;19.92;;;14.77;;
2658;SDS011;1339;53.304;10.406;2023-02-08T00:09:42;18.90;;;14.95;;
2658;SDS011;1339;53.304;10.406;2023-02-08T00:12:10;22.75;;;15.68;;
2658;SDS011;1339;53.304;10.406;2023-02-08T00:14:37;22.08;;;16.05;;
2658;SDS011;1339;53.304;10.406;2023-02-08T00:17:04;21.55;;;14.73;;
2658;SDS011;1339;53.304;10.406;2023-02-08T00:19:30;19.23;;;14.48;;
2658;SDS011;1339;53.304;10.406;2023-02-08T00:21:57;23.67;;;17.60;;
2658;SDS011;1339;53.304;10.406;2023-02-08T00:24:24;20.33;;;16.30;;
2658;SDS011;1339;53.304;10.406;2023-02-08T00:26:51;25.52;;;15.20;;
2658;SDS011;1339;53.304;10.406;2023-02-08T00:29:20;23.63;;;17.15;;
2658;SDS011;1339;53.304;10.406;2023-02-08T00:31:47;27.60;;;15.13;;
2658;SDS011;1339;53.304;10.406;2023-02-08T00:34:14;20.67;;;16.08;;
2658;SDS011;1339;53.304;10.406;2023-02-08T00:36:41;23.20;;;16.50;;
2658;SDS011;1339;53.304;10.406;2023-02-08T00:39:07;20.08;;;15.10;;
2658;SDS011;1339;53.304;10.406;2023-02-08T00:41:34;24.13;;;15.80;;
2658;SDS011;1339;53.304;10.406;2023-02-08T00:44:01;21.67;;;17.23;;
2658;SDS011;1339;53.304;10.406;2023-02-08T00:46:30;26.00;;;16.88;;
2658;SDS011;1339;53.304;10.406;2023-02-08T00:48:56;22.23;;;17.15;;
2658;SDS011;1339;53.304;10.406;2023-02-08T00:51:23;21.38;;;15.80;;
2658;SDS011;1339;53.304;10.406;2023-02-08T00:53:50;20.58;;;15.93;;
2658;SDS011;1339;53.304;10.406;2023-02-08T00:56:17;22.23;;;16.65;;
2658;SDS011;1339;53.304;10.406;2023-02-08T00:58:45;24.55;;;16.98;;
2658;SDS011;1339;53.304;10.406;2023-02-08T01:01:12;22.90;;;15.52;;
2658;SDS011;1339;53.304;10.406;2023-02-08T01:03:41;21.35;;;17.52;;
2658;SDS011;1339;53.304;10.406;2023-02-08T01:06:09;27.98;;;16.40;;
2658;SDS011;1339;53.304;10.406;2023-02-08T01:08:36;26.50;;;15.50;;
2658;SDS011;1339;53.304;10.406;2023-02-08T01:11:04;25.20;;;15.55;;
2658;SDS011;1339;53.304;10.406;2023-02-08T01:13:31;21.63;;;15.70;;
2658;SDS011;1339;53.304;10.406;2023-02-08T01:16:04;24.80;;;15.43;;
2658;SDS011;1339;53.304;10.406;2023-02-08T01:18:31;28.20;;;17.80;;
2658;SDS011;1339;53.304;10.406;2023-02-08T01:21:03;22.38;;;16.17;;
2658;SDS011;1339;53.304;10.406;2023-02-08T01:23:30;23.83;;;17.15;;
2658;SDS011;1339;53.304;10.406;2023-02-08T01:25:57;25.55;;;15.63;;
2658;SDS011;1339;53.304;10.406;2023-02-08T01:28:24;24.60;;;17.13;;
2658;SDS011;1339;53.304;10.406;2023-02-08T01:30:51;23.20;;;16.00;;
2658;SDS011;1339;53.304;10.406;2023-02-08T01:33:17;21.60;;;15.98;;
2658;SDS011;1339;53.304;10.406;2023-02-08T01:35:44;23.73;;;17.38;;
2658;SDS011;1339;53.304;10.406;2023-02-08T01:38:13;26.27;;;16.08;;
2658;SDS011;1339;53.304;10.406;2023-02-08T01:40:39;21.95;;;16.75;;
2658;SDS011;1339;53.304;10.406;2023-02-08T01:43:08;26.88;;;17.70;;
2658;SDS011;1339;53.304;10.406;2023-02-08T01:45:42;25.40;;;18.08;;
2658;SDS011;1339;53.304;10.406;2023-02-08T01:48:10;20.20;;;15.52;;
2658;SDS011;1339;53.304;10.406;2023-02-08T01:50:41;23.95;;;16.08;;
2658;SDS011;1339;53.304;10.406;2023-02-08T01:53:08;20.17;;;15.60;;
2658;SDS011;1339;53.304;10.406;2023-02-08T01:55:38;20.77;;;16.33;;
2658;SDS011;1339;53.304;10.406;2023-02-08T01:58:08;23.10;;;17.85;;
2658;SDS011;1339;53.304;10.406;2023-02-08T02:00:35;28.95;;;17.42;;
2658;SDS011;1339;53.304;10.406;2023-02-08T02:03:03;24.63;;;17.42;;
2658;SDS011;1339;53.304;10.406;2023-02-08T02:05:31;20.20;;;15.32;;
2658;SDS011;1339;53.304;10.406;2023-02-08T02:07:59;27.77;;;18.42;;
2658;SDS011;1339;53.304;10.406;2023-02-08T02:10:27;25.75;;;17.27;;
2658;SDS011;1339;53.304;10.406;2023-02-08T02:13:00;23.58;;;15.40;;
2658;SDS011;1339;53.304;10.406;2023-02-08T02:15:27;19.65;;;15.10;;
2658;SDS011;1339;53.304;10.406;2023-02-08T02:17:54;22.80;;;17.05;;
2658;SDS011;1339;53.304;10.406;2023-02-08T02:20:23;20.95;;;16.80;;
2658;SDS011;1339;53.304;10.406;2023-02-08T02:22:57;22.08;;;15.90;;
2658;SDS011;1339;53.304;10.406;2023-02-08T02:25:41;25.45;;;17.15;;
2658;SDS011;1339;53.304;10.406;2023-02-08T02:28:30;23.67;;;17.35;;
2658;SDS011;1339;53.304;10.406;2023-02-08T02:33:55;23.10;;;15.77;;
2658;SDS011;1339;53.304;10.406;2023-02-08T02:36:26;24.63;;;15.90;;
2658;SDS011;1339;53.304;10.406;2023-02-08T02:38:58;21.23;;;16.60;;
2658;SDS011;1339;53.304;10.406;2023-02-08T02:41:30;24.10;;;17.27;;
2658;SDS011;1339;53.304;10.406;2023-02-08T02:44:19;23.83;;;16.55;;
2658;SDS011;1339;53.304;10.406;2023-02-08T02:46:49;23.25;;;18.00;;
2658;SDS011;1339;53.304;10.406;2023-02-08T02:49:21;27.33;;;17.00;;
2658;SDS011;1339;53.304;10.406;2023-02-08T02:51:52;25.58;;;16.33;;
2658;SDS011;1339;53.304;10.406;2023-02-08T02:54:22;24.10;;;15.25;;
2658;SDS011;1339;53.304;10.406;2023-02-08T02:56:52;23.70;;;16.67;;
2658;SDS011;1339;53.304;10.406;2023-02-08T02:59:21;23.80;;;16.50;;
2658;SDS011;1339;53.304;10.406;2023-02-08T03:01:48;29.27;;;17.05;;
2658;SDS011;1339;53.304;10.406;2023-02-08T03:04:16;24.42;;;18.10;;
2658;SDS011;1339;53.304;10.406;2023-02-08T03:06:50;25.00;;;17.45;;
2658;SDS011;1339;53.304;10.406;2023-02-08T03:09:24;24.02;;;16.17;;
2658;SDS011;1339;53.304;10.406;2023-02-08T03:11:56;24.83;;;16.88;;
2658;SDS011;1339;53.304;10.406;2023-02-08T03:14:32;26.77;;;15.57;;
2658;SDS011;1339;53.304;10.406;2023-02-08T03:17:10;27.75;;;17.00;;
2658;SDS011;1339;53.304;10.406;2023-02-08T03:19:42;23.48;;;15.63;;
2658;SDS011;1339;53.304;10.406;2023-02-08T03:22:13;25.00;;;17.38;;
2658;SDS011;1339;53.304;10.406;2023-02-08T03:24:44;30.35;;;18.52;;
2658;SDS011;1339;53.304;10.406;2023-02-08T03:27:13;30.73;;;18.70;;
2658;SDS011;1339;53.304;10.406;2023-02-08T03:29:45;28.98;;;18.65;;
2658;SDS011;1339;53.304;10.406;2023-02-08T03:32:15;25.83;;;15.63;;
2658;SDS011;1339;53.304;10.406;2023-02-08T03:34:45;28.92;;;17.95;;
2658;SDS011;1339;53.304;10.406;2023-02-08T03:37:17;33.50;;;17.23;;
2658;SDS011;1339;53.304;10.406;2023-02-08T03:39:45;28.83;;;18.80;;
2658;SDS011;1339;53.304;10.406;2023-02-08T03:42:15;27.88;;;19.10;;
2658;SDS011;1339;53.304;10.406;2023-02-08T03:44:43;25.58;;;17.50;;
2658;SDS011;1339;53.304;10.406;2023-02-08T03:47:12;25.73;;;17.58;;
2658;SDS011;1339;53.304;10.406;2023-02-08T03:49:40;24.98;;;16.85;;
2658;SDS011;1339;53.304;10.406;2023-02-08T03:52:07;24.58;;;17.08;;
2658;SDS011;1339;53.304;10.406;2023-02-08T03:54:37;24.92;;;17.20;;
2658;SDS011;1339;53.304;10.406;2023-02-08T03:57:06;27.25;;;18.42;;
2658;SDS011;1339;53.304;10.406;2023-02-08T03:59:36;21.95;;;16.27;;
2658;SDS011;1339;53.304;10.406;2023-02-08T04:02:05;24.85;;;17.02;;
2658;SDS011;1339;53.304;10.406;2023-02-08T04:04:34;26.48;;;17.73;;
2658;SDS011;1339;53.304;10.406;2023-02-08T04:07:02;26.08;;;17.23;;
2658;SDS011;1339;53.304;10.406;2023-02-08T04:09:29;28.15;;;19.38;;
2658;SDS011;1339;53.304;10.406;2023-02-08T04:11:57;23.23;;;15.63;;
2658;SDS011;1339;53.304;10.406;2023-02-08T04:14:24;25.38;;;17.00;;
2658;SDS011;1339;53.304;10.406;2023-02-08T04:16:51;24.95;;;16.73;;
2658;SDS011;1339;53.304;10.406;2023-02-08T04:19:18;26.08;;;15.68;;
2658;SDS011;1339;53.304;10.406;2023-02-08T04:21:45;26.45;;;16.13;;
2658;SDS011;1339;53.304;10.406;2023-02-08T04:24:12;29.88;;;18.33;;
2658;SDS011;1339;53.304;10.406;2023-02-08T04:26:39;22.27;;;16.63;;
2658;SDS011;1339;53.304;10.406;2023-02-08T04:29:07;22.95;;;15.02;;
2658;SDS011;1339;53.304;10.406;2023-02-08T04:31:34;22.60;;;15.77;;
2658;SDS011;1339;53.304;10.406;2023-02-08T04:34:01;26.30;;;16.80;;
2658;SDS011;1339;53.304;10.406;2023-02-08T04:36:28;25.05;;;16.40;;
2658;SDS011;1339;53.304;10.406;2023-02-08T04:38:55;23.00;;;15.82;;
2658;SDS011;1339;53.304;10.406;2023-02-08T04:41:22;24.80;;;15.73;;
2658;SDS011;1339;53.304;10.406;2023-02-08T04:43:49;30.40;;;19.40;;
2658;SDS011;1339;53.304;10.406;2023-02-08T04:46:18;27.20;;;18.13;;
2658;SDS011;1339;53.304;10.406;2023-02-08T04:48:44;32.90;;;18.95;;
2658;SDS011;1339;53.304;10.406;2023-02-08T04:51:11;26.70;;;17.13;;
2658;SDS011;1339;53.304;10.406;2023-02-08T04:53:38;25.73;;;17.75;;
2658;SDS011;1339;53.304;10.406;2023-02-08T04:56:05;26.35;;;17.33;;
2658;SDS011;1339;53.304;10.406;2023-02-08T04:58:32;31.92;;;18.85;;
2658;SDS011;1339;53.304;10.406;2023-02-08T05:00:59;25.75;;;17.00;;
2658;SDS011;1339;53.304;10.406;2023-02-08T05:03:28;29.20;;;17.38;;
2658;SDS011;1339;53.304;10.406;2023-02-08T05:05:55;21.92;;;16.85;;
2658;SDS011;1339;53.304;10.406;2023-02-08T05:08:22;22.48;;;16.70;;
2658;SDS011;1339;53.304;10.406;2023-02-08T05:10:50;26.17;;;17.02;;
2658;SDS011;1339;53.304;10.406;2023-02-08T05:13:16;25.30;;;17.00;;
2658;SDS011;1339;53.304;10.406;2023-02-08T05:15:43;24.38;;;16.95;;
2658;SDS011;1339;53.304;10.406;2023-02-08T05:18:10;29.85;;;18.17;;
2658;SDS011;1339;53.304;10.406;2023-02-08T05:20:39;23.75;;;15.80;;
2658;SDS011;1339;53.304;10.406;2023-02-08T05:23:06;30.33;;;18.73;;
2658;SDS011;1339;53.304;10.406;2023-02-08T05:25:32;25.52;;;15.80;;
2658;SDS011;1339;53.304;10.406;2023-02-08T05:28:00;23.35;;;16.88;;
2658;SDS011;1339;53.304;10.406;2023-02-08T05:30:27;29.40;;;17.50;;
2658;SDS011;1339;53.304;10.406;2023-02-08T05:32:55;29.80;;;17.52;;
2658;SDS011;1339;53.304;10.406;2023-02-08T05:35:22;27.77;;;18.00;;
2658;SDS011;1339;53.304;10.406;2023-02-08T05:37:50;29.88;;;16.92;;
2658;SDS011;1339;53.304;10.406;2023-02-08T05:40:17;29.50;;;18.50;;
2658;SDS011;1339;53.304;10.406;2023-02-08T05:42:44;32.90;;;19.30;;
2658;SDS011;1339;53.304;10.406;2023-02-08T05:45:12;24.25;;;17.42;;
2658;SDS011;1339;53.304;10.406;2023-02-08T05:47:38;23.75;;;16.02;;
2658;SDS011;1339;53.304;10.406;2023-02-08T05:50:06;33.40;;;18.73;;
2658;SDS011;1339;53.304;10.406;2023-02-08T05:52:33;25.92;;;16.95;;
2658;SDS011;1339;53.304;10.406;2023-02-08T05:55:01;22.65;;;17.25;;
2658;SDS011;1339;53.304;10.406;2023-02-08T05:57:28;23.75;;;16.67;;
2658;SDS011;1339;53.304;10.406;2023-02-08T05:59:55;28.98;;;19.42;;
2658;SDS011;1339;53.304;10.406;2023-02-08T06:02:22;28.17;;;18.35;;
2658;SDS011;1339;53.304;10.406;2023-02-08T06:04:49;32.60;;;20.42;;
2658;SDS011;1339;53.304;10.406;2023-02-08T06:07:16;31.40;;;19.73;;
2658;SDS011;1339;53.304;10.406;2023-02-08T06:09:43;33.45;;;21.13;;
2658;SDS011;1339;53.304;10.406;2023-02-08T06:12:11;34.67;;;23.52;;
2658;SDS011;1339;53.304;10.406;2023-02-08T06:14:38;41.03;;;24.17;;
2658;SDS011;1339;53.304;10.406;2023-02-08T06:17:05;31.80;;;21.50;;
2658;SDS011;1339;53.304;10.406;2023-02-08T06:19:32;26.70;;;17.70;;
2658;SDS011;1339;53.304;10.406;2023-02-08T06:21:59;28.58;;;17.73;;
2658;SDS011;1339;53.304;10.406;2023-02-08T06:24:26;27.27;;;18.33;;
2658;SDS011;1339;53.304;10.406;2023-02-08T06:26:53;33.80;;;20.75;;
2658;SDS011;1339;53.304;10.406;2023-02-08T06:29:21;29.80;;;18.27;;
2658;SDS011;1339;53.304;10.406;2023-02-08T06:31:48;27.55;;;18.88;;
2658;SDS011;1339;53.304;10.406;2023-02-08T06:34:15;31.73;;;20.25;;
2658;SDS011;1339;53.304;10.406;2023-02-08T06:36:42;32.88;;;19.25;;
2658;SDS011;1339;53.304;10.406;2023-02-08T06:39:09;34.47;;;21.08;;
2658;SDS011;1339;53.304;10.406;2023-02-08T06:41:36;29.20;;;18.63;;
2658;SDS011;1339;53.304;10.406;2023-02-08T06:44:03;33.55;;;21.98;;
2658;SDS011;1339;53.304;10.406;2023-02-08T06:46:31;38.13;;;22.17;;
2658;SDS011;1339;53.304;10.406;2023-02-08T06:48:58;37.88;;;23.58;;
2658;SDS011;1339;53.304;10.406;2023-02-08T06:51:26;31.25;;;18.52;;
2658;SDS011;1339;53.304;10.406;2023-02-08T06:53:52;34.53;;;18.23;;
2658;SDS011;1339;53.304;10.406;2023-02-08T06:56:19;25.75;;;17.02;;
2658;SDS011;1339;53.304;10.406;2023-02-08T06:58:46;28.92;;;17.00;;
2658;SDS011;1339;53.304;10.406;2023-02-08T07:01:13;30.00;;;17.75;;
2658;SDS011;1339;53.304;10.406;2023-02-08T07:03:42;24.90;;;16.63;;
2658;SDS011;1339;53.304;10.406;2023-02-08T07:06:12;30.55;;;20.15;;
2658;SDS011;1339;53.304;10.406;2023-02-08T07:08:39;31.15;;;20.63;;
2658;SDS011;1339;53.304;10.406;2023-02-08T07:11:06;40.60;;;22.02;;
2658;SDS011;1339;53.304;10.406;2023-02-08T07:13:33;34.45;;;22.35;;
2658;SDS011;1339;53.304;10.406;2023-02-08T07:16:00;37.60;;;22.33;;
2658;SDS011;1339;53.304;10.406;2023-02-08T07:18:27;34.63;;;21.63;;
2658;SDS011;1339;53.304;10.406;2023-02-08T07:20:56;39.42;;;23.85;;
2658;SDS011;1339;53.304;10.406;2023-02-08T07:23:23;37.50;;;22.38;;
2658;SDS011;1339;53.304;10.406;2023-02-08T07:25:56;53.72;;;27.42;;
2658;SDS011;1339;53.304;10.406;2023-02-08T07:28:23;38.47;;;23.73;;
2658;SDS011;1339;53.304;10.406;2023-02-08T07:30:50;32.97;;;21.08;;
2658;SDS011;1339;53.304;10.406;2023-02-08T07:33:17;38.25;;;22.45;;
2658;SDS011;1339;53.304;10.406;2023-02-08T07:35:44;55.30;;;26.60;;
2658;SDS011;1339;53.304;10.406;2023-02-08T07:38:13;54.33;;;29.48;;
2658;SDS011;1339;53.304;10.406;2023-02-08T07:40:40;89.80;;;40.67;;
2658;SDS011;1339;53.304;10.406;2023-02-08T07:43:07;69.47;;;36.78;;
2658;SDS011;1339;53.304;10.406;2023-02-08T07:45:35;40.20;;;23.45;;
2658;SDS011;1339;53.304;10.406;2023-02-08T07:48:03;39.83;;;22.48;;
2658;SDS011;1339;53.304;10.406;2023-02-08T07:50:30;39.33;;;23.05;;
2658;SDS011;1339;53.304;10.406;2023-02-08T07:52:57;49.60;;;23.40;;
2658;SDS011;1339;53.304;10.406;2023-02-08T07:55:25;59.47;;;27.40;;
2658;SDS011;1339;53.304;10.406;2023-02-08T07:57:53;49.60;;;25.83;;
2658;SDS011;1339;53.304;10.406;2023-02-08T08:00:20;38.17;;;23.38;;
2658;SDS011;1339;53.304;10.406;2023-02-08T08:02:47;56.17;;;30.00;;
2658;SDS011;1339;53.304;10.406;2023-02-08T08:05:15;56.22;;;29.50;;
2658;SDS011;1339;53.304;10.406;2023-02-08T08:07:42;40.35;;;25.05;;
2658;SDS011;1339;53.304;10.406;2023-02-08T08:10:09;44.38;;;24.88;;
2658;SDS011;1339;53.304;10.406;2023-02-08T08:12:37;47.85;;;25.70;;
2658;SDS011;1339;53.304;10.406;2023-02-08T08:15:04;56.67;;;36.13;;
2658;SDS011;1339;53.304;10.406;2023-02-08T08:17:31;46.35;;;30.60;;
2658;SDS011;1339;53.304;10.406;2023-02-08T08:19:58;44.22;;;27.52;;
2658;SDS011;1339;53.304;10.406;2023-02-08T08:22:25;41.20;;;26.35;;
2658;SDS011;1339;53.304;10.406;2023-02-08T08:24:52;39.55;;;24.73;;
2658;SDS011;1339;53.304;10.406;2023-02-08T08:27:20;44.10;;;24.30;;
2658;SDS011;1339;53.304;10.406;2023-02-08T08:29:48;55.58;;;29.80;;
2658;SDS011;1339;53.304;10.406;2023-02-08T08:32:15;43.15;;;25.15;;
2658;SDS011;1339;53.304;10.406;2023-02-08T08:34:42;47.72;;;27.85;;
2658;SDS011;1339;53.304;10.406;2023-02-08T08:37:09;61.05;;;30.92;;
2658;SDS011;1339;53.304;10.406;2023-02-08T08:39:36;52.22;;;26.95;;
2658;SDS011;1339;53.304;10.406;2023-02-08T08:42:03;54.67;;;27.98;;
2658;SDS011;1339;53.304;10.406;2023-02-08T08:44:30;49.70;;;26.67;;
2658;SDS011;1339;53.304;10.406;2023-02-08T08:46:58;49.38;;;29.05;;
2658;SDS011;1339;53.304;10.406;2023-02-08T08:49:26;48.50;;;26.55;;
2658;SDS011;1339;53.304;10.406;2023-02-08T08:51:53;56.92;;;28.88;;
2658;SDS011;1339;53.304;10.406;2023-02-08T08:54:21;47.88;;;28.17;;
2658;SDS011;1339;53.304;10.406;2023-02-08T08:56:48;50.38;;;32.33;;
2658;SDS011;1339;53.304;10.406;2023-02-08T08:59:15;50.55;;;29.02;;
2658;SDS011;1339;53.304;10.406;2023-02-08T09:01:42;44.60;;;27.77;;
2658;SDS011;1339;53.304;10.406;2023-02-08T09:04:10;41.13;;;25.25;;
2658;SDS011;1339;53.304;10.406;2023-02-08T09:06:37;48.45;;;26.63;;
2658;SDS011;1339;53.304;10.406;2023-02-08T09:09:04;48.13;;;26.05;;
2658;SDS011;1339;53.304;10.406;2023-02-08T09:11:31;49.67;;;27.02;;
2658;SDS011;1339;53.304;10.406;2023-02-08T09:14:00;40.17;;;22.73;;
2658;SDS011;1339;53.304;10.406;2023-02-08T09:16:27;38.30;;;21.20;;
2658;SDS011;1339;53.304;10.406;2023-02-08T09:18:54;47.22;;;26.33;;
2658;SDS011;1339;53.304;10.406;2023-02-08T09:21:22;38.28;;;23.48;;
2658;SDS011;1339;53.304;10.406;2023-02-08T09:23:50;42.90;;;25.30;;
2658;SDS011;1339;53.304;10.406;2023-02-08T09:26:17;45.05;;;24.42;;
2658;SDS011;1339;53.304;10.406;2023-02-08T09:28:45;41.60;;;22.25;;
2658;SDS011;1339;53.304;10.406;2023-02-08T09:31:12;36.30;;;22.98;;
2658;SDS011;1339;53.304;10.406;2023-02-08T09:33:40;34.25;;;20.55;;
2658;SDS011;1339;53.304;10.406;2023-02-08T09:36:08;40.30;;;22.55;;
2658;SDS011;1339;53.304;10.406;2023-02-08T09:38:36;51.38;;;23.38;;
2658;SDS011;1339;53.304;10.406;2023-02-08T09:41:07;39.35;;;23.42;;
2658;SDS011;1339;53.304;10.406;2023-02-08T09:43:36;35.67;;;20.63;;
2658;SDS011;1339;53.304;10.406;2023-02-08T09:46:10;40.20;;;22.33;;
2658;SDS011;1339;53.304;10.406;2023-02-08T09:48:38;37.22;;;21.42;;
2658;SDS011;1339;53.304;10.406;2023-02-08T09:51:07;33.10;;;21.48;;
2658;SDS011;1339;53.304;10.406;2023-02-08T09:53:38;41.97;;;21.27;;
2658;SDS011;1339;53.304;10.406;2023-02-08T09:56:08;36.28;;;22.30;;
2658;SDS011;1339;53.304;10.406;2023-02-08T09:58:38;32.88;;;21.60;;
2658;SDS011;1339;53.304;10.406;2023-02-08T10:01:05;33.17;;;20.17;;
2658;SDS011;1339;53.304;10.406;2023-02-08T10:03:35;36.17;;;21.05;;
2658;SDS011;1339;53.304;10.406;2023-02-08T10:06:02;33.65;;;20.85;;
2658;SDS011;1339;53.304;10.406;2023-02-08T10:08:29;33.13;;;21.38;;
2658;SDS011;1339;53.304;10.406;2023-02-08T10:11:01;34.40;;;23.50;;
2658;SDS011;1339;53.304;10.406;2023-02-08T10:13:33;34.30;;;19.50;;
2658;SDS011;1339;53.304;10.406;2023-02-08T10:16:05;34.25;;;21.08;;
2658;SDS011;1339;53.304;10.406;2023-02-08T10:18:37;31.55;;;20.60;;
2658;SDS011;1339;53.304;10.406;2023-02-08T10:21:23;28.58;;;19.40;;
2658;SDS011;1339;53.304;10.406;2023-02-08T10:23:59;33.65;;;20.35;;
2658;SDS011;1339;53.304;10.406;2023-02-08T10:26:36;32.03;;;19.77;;
2658;SDS011;1339;53.304;10.406;2023-02-08T10:29:21;30.67;;;17.73;;
2658;SDS011;1339;53.304;10.406;2023-02-08T10:31:55;28.20;;;19.02;;
2658;SDS011;1339;53.304;10.406;2023-02-08T10:34:29;33.60;;;17.88;;
2658;SDS011;1339;53.304;10.406;2023-02-08T10:37:00;24.83;;;15.98;;
2658;SDS011;1339;53.304;10.406;2023-02-08T10:39:32;26.80;;;16.50;;
2658;SDS011;1339;53.304;10.406;2023-02-08T10:42:02;24.88;;;15.20;;
2658;SDS011;1339;53.304;10.406;2023-02-08T10:44:32;21.38;;;14.75;;
2658;SDS011;1339;53.304;10.406;2023-02-08T10:47:06;27.20;;;14.82;;
2658;SDS011;1339;53.304;10.406;2023-02-08T10:49:37;21.30;;;14.82;;
2658;SDS011;1339;53.304;10.406;2023-02-08T10:52:06;23.10;;;13.90;;
2658;SDS011;1339;53.304;10.406;2023-02-08T10:54:33;25.15;;;14.70;;
2658;SDS011;1339;53.304;10.406;2023-02-08T10:57:01;20.95;;;13.88;;
2658;SDS011;1339;53.304;10.406;2023-02-08T10:59:31;23.42;;;14.60;;
2658;SDS011;1339;53.304;10.406;2023-02-08T11:01:58;21.88;;;14.80;;
2658;SDS011;1339;53.304;10.406;2023-02-08T11:04:25;25.73;;;15.85;;
2658;SDS011;1339;53.304;10.406;2023-02-08T11:06:52;20.60;;;14.70;;
2658;SDS011;1339;53.304;10.406;2023-02-08T11:09:20;19.92;;;13.85;;
2658;SDS011;1339;53.304;10.406;2023-02-08T11:11:48;23.50;;;17.25;;
2658;SDS011;1339;53.304;10.406;2023-02-08T11:14:17;24.30;;;14.32;;
2658;SDS011;1339;53.304;10.406;2023-02-08T11:16:49;19.13;;;13.85;;
2658;SDS011;1339;53.304;10.406;2023-02-08T11:19:19;19.73;;;13.85;;
2658;SDS011;1339;53.304;10.406;2023-02-08T11:21:47;20.15;;;13.63;;
2658;SDS011;1339;53.304;10.406;2023-02-08T11:24:22;19.98;;;14.52;;
2658;SDS011;1339;53.304;10.406;2023-02-08T11:26:52;26.38;;;13.52;;
2658;SDS011;1339;53.304;10.406;2023-02-08T11:29:20;22.17;;;13.43;;
2658;SDS011;1339;53.304;10.406;2023-02-08T11:31:56;18.05;;;13.18;;
2658;SDS011;1339;53.304;10.406;2023-02-08T11:34:24;19.98;;;13.85;;
2658;SDS011;1339;53.304;10.406;2023-02-08T11:36:51;25.17;;;14.68;;
2658;SDS011;1339;53.304;10.406;2023-02-08T11:39:21;19.90;;;13.15;;
2658;SDS011;1339;53.304;10.406;2023-02-08T11:41:49;19.27;;;12.90;;
2658;SDS011;1339;53.304;10.406;2023-02-08T11:44:18;19.33;;;13.45;;
2658;SDS011;1339;53.304;10.406;2023-02-08T11:46:46;20.60;;;13.98;;
2658;SDS011;1339;53.304;10.406;2023-02-08T11:49:20;18.63;;;13.48;;
2658;SDS011;1339;53.304;10.406;2023-02-08T11:51:47;18.20;;;14.30;;
2658;SDS011;1339;53.304;10.406;2023-02-08T11:54:30;20.25;;;12.80;;
2658;SDS011;1339;53.304;10.406;2023-02-08T11:57:00;21.08;;;14.20;;
2658;SDS011;1339;53.304;10.406;2023-02-08T11:59:27;21.63;;;14.30;;
2658;SDS011;1339;53.304;10.406;2023-02-08T12:01:54;20.65;;;13.45;;
2658;SDS011;1339;53.304;10.406;2023-02-08T12:04:22;20.50;;;14.70;;
2658;SDS011;1339;53.304;10.406;2023-02-08T12:06:58;17.88;;;11.20;;
2658;SDS011;1339;53.304;10.406;2023-02-08T12:09:37;19.10;;;12.82;;
2658;SDS011;1339;53.304;10.406;2023-02-08T12:12:11;19.80;;;13.70;;
2658;SDS011;1339;53.304;10.406;2023-02-08T12:14:46;20.13;;;13.45;;
2658;SDS011;1339;53.304;10.406;2023-02-08T12:17:19;19.23;;;13.30;;
2658;SDS011;1339;53.304;10.406;2023-02-08T12:20:04;21.77;;;14.30;;
2658;SDS011;1339;53.304;10.406;2023-02-08T12:22:36;18.67;;;12.70;;
2658;SDS011;1339;53.304;10.406;2023-02-08T12:25:12;19.48;;;13.40;;
2658;SDS011;1339;53.304;10.406;2023-02-08T12:27:42;20.52;;;14.93;;
2658;SDS011;1339;53.304;10.406;2023-02-08T12:30:15;21.67;;;15.60;;
2658;SDS011;1339;53.304;10.406;2023-02-08T12:32:48;22.88;;;16.35;;
2658;SDS011;1339;53.304;10.406;2023-02-08T12:38:05;20.83;;;13.38;;
2658;SDS011;1339;53.304;10.406;2023-02-08T12:40:56;21.52;;;15.35;;
2658;SDS011;1339;53.304;10.406;2023-02-08T12:43:33;21.35;;;15.10;;
2658;SDS011;1339;53.304;10.406;2023-02-08T12:46:10;22.17;;;15.35;;
2658;SDS011;1339;53.304;10.406;2023-02-08T12:51:27;22.65;;;16.52;;
2658;SDS011;1339;53.304;10.406;2023-02-08T12:53:57;25.00;;;16.67;;
2658;SDS011;1339;53.304;10.406;2023-02-08T12:56:26;25.48;;;16.17;;
2658;SDS011;1339;53.304;10.406;2023-02-08T12:58:55;27.63;;;17.40;;
2658;SDS011;1339;53.304;10.406;2023-02-08T13:01:23;19.67;;;14.80;;
2658;SDS011;1339;53.304;10.406;2023-02-08T13:03:52;18.42;;;13.85;;
2658;SDS011;1339;53.304;10.406;2023-02-08T13:06:21;17.38;;;12.80;;
2658;SDS011;1339;53.304;10.406;2023-02-08T13:08:49;22.00;;;16.17;;
2658;SDS011;1339;53.304;10.406;2023-02-08T13:11:21;18.65;;;15.50;;
2658;SDS011;1339;53.304;10.406;2023-02-08T13:13:51;22.70;;;15.63;;
2658;SDS011;1339;53.304;10.406;2023-02-08T13:16:21;21.90;;;14.75;;
2658;SDS011;1339;53.304;10.406;2023-02-08T13:18:52;17.15;;;13.52;;
2658;SDS011;1339;53.304;10.406;2023-02-08T13:21:21;18.65;;;14.50;;
2658;SDS011;1339;53.304;10.406;2023-02-08T13:23:48;20.88;;;14.57;;
2658;SDS011;1339;53.304;10.406;2023-02-08T13:26:16;20.95;;;14.30;;
2658;SDS011;1339;53.304;10.406;2023-02-08T13:28:47;21.58;;;15.00;;
2658;SDS011;1339;53.304;10.406;2023-02-08T13:31:15;16.23;;;13.10;;
2658;SDS011;1339;53.304;10.406;2023-02-08T13:33:44;18.08;;;13.85;;
2658;SDS011;1339;53.304;10.406;2023-02-08T13:36:18;24.27;;;15.30;;
2658;SDS011;1339;53.304;10.406;2023-02-08T13:38:45;21.55;;;16.73;;
2658;SDS011;1339;53.304;10.406;2023-02-08T13:41:13;18.35;;;14.18;;
2658;SDS011;1339;53.304;10.406;2023-02-08T13:43:42;20.50;;;13.45;;
2658;SDS011;1339;53.304;10.406;2023-02-08T13:46:13;24.42;;;16.85;;
2658;SDS011;1339;53.304;10.406;2023-02-08T13:48:42;21.67;;;15.85;;
2658;SDS011;1339;53.304;10.406;2023-02-08T13:54:04;22.88;;;16.20;;
2658;SDS011;1339;53.304;10.406;2023-02-08T13:56:38;17.92;;;14.48;;
2658;SDS011;1339;53.304;10.406;2023-02-08T13:59:22;22.00;;;15.73;;
2658;SDS011;1339;53.304;10.406;2023-02-08T14:04:40;18.88;;;13.40;;
2658;SDS011;1339;53.304;10.406;2023-02-08T14:07:15;19.33;;;14.32;;
2658;SDS011;1339;53.304;10.406;2023-02-08T14:09:47;20.13;;;14.68;;
2658;SDS011;1339;53.304;10.406;2023-02-08T14:12:21;19.98;;;14.45;;
2658;SDS011;1339;53.304;10.406;2023-02-08T14:17:47;16.98;;;14.60;;
2658;SDS011;1339;53.304;10.406;2023-02-08T14:20:18;17.92;;;15.30;;
2658;SDS011;1339;53.304;10.406;2023-02-08T14:22:47;20.10;;;15.73;;
2658;SDS011;1339;53.304;10.406;2023-02-08T14:25:15;28.83;;;15.40;;
2658;SDS011;1339;53.304;10.406;2023-02-08T14:27:48;22.20;;;15.60;;
2658;SDS011;1339;53.304;10.406;2023-02-08T14:30:20;19.13;;;15.23;;
2658;SDS011;1339;53.304;10.406;2023-02-08T14:32:48;17.80;;;15.00;;
2658;SDS011;1339;53.304;10.406;2023-02-08T14:35:18;20.98;;;14.80;;
2658;SDS011;1339;53.304;10.406;2023-02-08T14:37:48;18.92;;;16.23;;
2658;SDS011;1339;53.304;10.406;2023-02-08T14:40:31;15.55;;;13.75;;
2658;SDS011;1339;53.304;10.406;2023-02-08T14:43:00;22.65;;;14.73;;
2658;SDS011;1339;53.304;10.406;2023-02-08T14:45:29;17.45;;;13.52;;
2658;SDS011;1339;53.304;10.406;2023-02-08T14:47:57;18.23;;;14.68;;
2658;SDS011;1339;53.304;10.406;2023-02-08T14:50:32;17.75;;;14.68;;
2658;SDS011;1339;53.304;10.406;2023-02-08T14:53:01;14.95;;;12.55;;
2658;SDS011;1339;53.304;10.406;2023-02-08T14:55:30;19.05;;;13.30;;
2658;SDS011;1339;53.304;10.406;2023-02-08T14:57:59;19.60;;;13.25;;
2658;SDS011;1339;53.304;10.406;2023-02-08T15:00:28;17.80;;;13.68;;
2658;SDS011;1339;53.304;10.406;2023-02-08T15:02:58;15.88;;;12.48;;